createdAt,value
2023-01-08T00:03:59.489Z,36.80
2023-01-08T00:09:08.393Z,42.90
2023-01-08T00:14:16.895Z,35.10
2023-01-08T00:19:25.677Z,35.60
2023-01-08T00:24:34.045Z,45.10
2023-01-08T00:29:42.517Z,42.10
2023-01-08T00:34:50.999Z,39.70
2023-01-08T00:39:59.457Z,38.70
2023-01-08T00:45:10.527Z,38.00
2023-01-08T00:50:19.445Z,37.50
2023-01-08T00:55:27.979Z,34.50
2023-01-08T01:00:36.479Z,40.90
2023-01-08T01:05:45.064Z,38.20
2023-01-08T01:10:53.382Z,36.50
2023-01-08T01:16:05.331Z,39.90
2023-01-08T01:21:24.650Z,37.20
2023-01-08T01:26:34.651Z,36.60
2023-01-08T01:31:43.170Z,32.20
2023-01-08T01:36:51.533Z,36.90
2023-01-08T01:41:59.834Z,32.80
2023-01-08T01:47:17.095Z,35.60
2023-01-08T01:52:27.840Z,33.60
2023-01-08T01:57:38.103Z,36.50
2023-01-08T02:08:01.788Z,33.00
2023-01-08T02:18:28.144Z,29.20
2023-01-08T02:31:21.151Z,34.10
2023-01-08T02:37:54.313Z,31.60
2023-01-08T02:44:22.995Z,32.70
2023-01-08T02:50:54.912Z,26.50
2023-01-08T02:57:00.727Z,30.70
2023-01-08T03:02:54.090Z,27.20
2023-01-08T03:09:10.227Z,29.60
2023-01-08T03:15:33.720Z,25.10
2023-01-08T03:21:53.932Z,23.30
2023-01-08T03:28:01.778Z,26.70
2023-01-08T03:34:25.167Z,26.40
2023-01-08T03:40:36.258Z,21.80
2023-01-08T03:46:56.098Z,24.60
2023-01-08T03:53:12.003Z,25.10
2023-01-08T03:59:25.795Z,26.30
2023-01-08T04:05:53.398Z,24.90
2023-01-08T04:12:00.219Z,24.30
2023-01-08T04:17:51.757Z,20.70
2023-01-08T04:24:24.563Z,22.30
2023-01-08T04:30:46.652Z,22.50
2023-01-08T04:37:05.822Z,21.10
2023-01-08T04:43:18.158Z,23.20
2023-01-08T04:49:41.698Z,20.40
2023-01-08T04:55:45.378Z,23.00
2023-01-08T05:01:43.446Z,24.00
2023-01-08T05:07:38.634Z,21.80
2023-01-08T05:14:02.202Z,23.80
2023-01-08T05:20:45.597Z,22.50
2023-01-08T05:27:09.351Z,19.40
2023-01-08T05:33:14.441Z,24.70
2023-01-08T05:39:33.368Z,21.70
2023-01-08T05:45:38.800Z,21.70
2023-01-08T05:52:02.572Z,26.30
2023-01-08T05:58:24.764Z,21.10
2023-01-08T06:04:50.820Z,20.50
2023-01-08T06:11:18.044Z,20.90
2023-01-08T06:17:21.698Z,26.60
2023-01-08T06:23:45.251Z,25.60
2023-01-08T06:30:35.768Z,24.90
2023-01-08T06:36:54.591Z,22.50
2023-01-08T06:43:18.740Z,25.10
2023-01-08T06:49:47.525Z,21.60
2023-01-08T06:56:00.319Z,22.50
2023-01-08T07:02:11.443Z,19.90
2023-01-08T07:08:20.635Z,20.50
2023-01-08T07:14:27.062Z,22.80
2023-01-08T07:20:32.063Z,26.30
2023-01-08T07:26:55.951Z,23.00
2023-01-08T07:33:05.942Z,25.90
2023-01-08T07:39:29.615Z,25.80
2023-01-08T07:45:53.274Z,29.50
2023-01-08T07:52:16.664Z,27.90
2023-01-08T07:58:40.287Z,25.60
2023-01-08T08:05:00.028Z,25.90
2023-01-08T08:11:23.591Z,28.10
2023-01-08T08:17:47.242Z,27.90
2023-01-08T08:24:10.678Z,32.70
2023-01-08T08:30:34.145Z,28.00
2023-01-08T08:36:50.418Z,32.50
2023-01-08T08:42:13.349Z,31.00
2023-01-08T08:48:37.142Z,28.80
2023-01-08T08:54:57.908Z,37.40
2023-01-08T09:01:04.857Z,28.80
2023-01-08T09:07:28.427Z,28.70
2023-01-08T09:13:48.211Z,41.60
2023-01-08T09:20:04.412Z,30.10
2023-01-08T09:27:12.249Z,38.10
2023-01-08T09:32:39.490Z,32.70
2023-01-08T09:43:40.420Z,34.90
2023-01-08T09:49:17.090Z,25.30
2023-01-08T09:54:46.430Z,29.40
2023-01-08T10:05:48.324Z,26.30
2023-01-08T10:11:18.747Z,29.10
2023-01-08T10:16:51.826Z,31.60
2023-01-08T10:22:24.997Z,29.70
2023-01-08T10:27:57.980Z,29.00
2023-01-08T10:33:31.867Z,31.10
2023-01-08T10:39:05.533Z,45.70
2023-01-08T10:44:35.912Z,47.00
2023-01-08T10:50:07.637Z,42.60
2023-01-08T11:02:40.028Z,30.10
2023-01-08T11:07:58.293Z,32.60
2023-01-08T11:13:20.215Z,31.80
2023-01-08T11:18:46.411Z,31.20
2023-01-08T11:24:18.354Z,30.90
2023-01-08T11:29:50.307Z,25.30
2023-01-08T11:35:19.986Z,24.00
2023-01-08T11:40:47.633Z,23.40
2023-01-08T11:46:27.265Z,19.10
2023-01-08T11:52:14.858Z,21.70
2023-01-08T11:57:35.884Z,17.70
2023-01-08T12:02:57.443Z,19.10
2023-01-08T12:08:33.804Z,20.30
2023-01-08T12:14:37.908Z,22.00
2023-01-08T12:20:22.324Z,20.50
2023-01-08T12:26:03.592Z,20.30
2023-01-08T12:32:23.909Z,21.40
2023-01-08T12:37:57.407Z,23.50
2023-01-08T12:43:28.515Z,20.10
2023-01-08T12:48:56.214Z,20.80
2023-01-08T12:54:31.294Z,19.30
2023-01-08T13:00:04.168Z,23.30
2023-01-08T13:05:36.205Z,22.40
2023-01-08T13:11:03.238Z,22.30
2023-01-08T13:16:28.842Z,20.70
2023-01-08T13:30:42.628Z,22.00
2023-01-08T13:36:26.914Z,20.30
2023-01-08T13:42:24.556Z,22.00
2023-01-08T13:47:53.854Z,24.70
2023-01-08T13:53:24.145Z,25.30
2023-01-08T13:58:57.425Z,26.20
2023-01-08T14:04:27.928Z,27.20
2023-01-08T14:10:17.247Z,26.00
2023-01-08T14:15:47.427Z,29.70
2023-01-08T14:21:22.059Z,33.60
2023-01-08T14:26:57.055Z,28.00
2023-01-08T14:32:28.229Z,32.90
2023-01-08T14:38:05.646Z,32.70
2023-01-08T14:43:40.503Z,30.70
2023-01-08T14:49:20.318Z,32.10
2023-01-08T14:54:52.076Z,29.80
2023-01-08T15:00:26.333Z,34.40
2023-01-08T15:05:55.982Z,34.70
2023-01-08T15:11:31.445Z,44.40
2023-01-08T15:17:07.208Z,50.80
2023-01-08T15:28:06.166Z,50.10
2023-01-08T15:33:35.193Z,48.50
2023-01-08T15:39:04.409Z,46.00
2023-01-08T15:50:00.360Z,45.30
2023-01-08T15:55:29.274Z,42.80
2023-01-08T16:00:58.077Z,43.10
2023-01-08T16:06:27.254Z,44.00
2023-01-08T16:11:55.878Z,45.80
2023-01-08T16:17:24.817Z,47.90
2023-01-08T16:22:54.738Z,42.80
2023-01-08T16:32:01.991Z,42.80
2023-01-08T16:37:10.519Z,45.20
2023-01-08T16:42:19.035Z,39.90
2023-01-08T16:47:27.566Z,40.20
2023-01-08T16:52:37.865Z,43.70
2023-01-08T17:02:53.070Z,44.90
2023-01-08T17:08:01.432Z,49.80
2023-01-08T17:13:10.750Z,43.80
2023-01-08T17:18:19.031Z,43.90
2023-01-08T17:23:29.897Z,40.70
2023-01-08T17:28:39.725Z,42.70
2023-01-08T17:33:50.604Z,46.00
2023-01-08T17:39:01.064Z,45.30
2023-01-08T17:44:12.939Z,45.50
2023-01-08T17:49:21.536Z,45.20
2023-01-08T17:54:31.235Z,46.80
2023-01-08T17:59:39.526Z,45.50
2023-01-08T18:04:48.394Z,46.70
2023-01-08T18:09:57.869Z,52.20
2023-01-08T18:15:07.399Z,49.00
2023-01-08T18:20:17.146Z,48.20
2023-01-08T18:25:26.536Z,50.20
2023-01-08T18:30:35.358Z,52.30
2023-01-08T18:35:44.891Z,53.40
2023-01-08T18:40:58.724Z,54.10
2023-01-08T18:46:09.641Z,55.30
2023-01-08T18:51:17.906Z,56.50
2023-01-08T18:56:51.319Z,55.70
2023-01-08T19:01:59.947Z,53.60
2023-01-08T19:07:08.338Z,56.20
2023-01-08T19:12:16.700Z,56.70
2023-01-08T19:17:25.029Z,51.30
2023-01-08T19:22:33.709Z,53.70
2023-01-08T19:27:42.071Z,55.20
2023-01-08T19:32:50.681Z,53.70
2023-01-08T19:37:59.404Z,55.10
2023-01-08T19:43:25.719Z,54.70
2023-01-08T19:48:34.509Z,51.10
2023-01-08T19:53:43.297Z,61.70
2023-01-08T19:58:52.287Z,55.60
2023-01-08T20:04:00.749Z,54.40
2023-01-08T20:09:10.052Z,52.20
2023-01-08T20:14:20.886Z,53.30
2023-01-08T20:19:30.648Z,56.80
2023-01-08T20:24:40.031Z,52.20
2023-01-08T20:29:48.495Z,53.10
2023-01-08T20:34:57.265Z,57.40
2023-01-08T20:40:06.208Z,53.40
2023-01-08T20:45:15.529Z,53.30
2023-01-08T20:57:14.266Z,53.20
2023-01-08T21:02:22.859Z,53.60
2023-01-08T21:07:31.681Z,55.00
2023-01-08T21:12:40.123Z,56.50
2023-01-08T21:17:48.649Z,54.10
2023-01-08T21:22:57.808Z,60.20
2023-01-08T21:28:08.157Z,59.40
2023-01-08T21:33:16.521Z,53.50
2023-01-08T21:38:24.877Z,65.10
2023-01-08T21:43:51.190Z,62.00
2023-01-08T21:48:59.506Z,56.80
2023-01-08T21:54:08.023Z,55.30
2023-01-08T21:59:16.687Z,52.00
2023-01-08T22:04:25.210Z,49.80
2023-01-08T22:09:33.640Z,45.90
2023-01-08T22:14:42.332Z,47.10
2023-01-08T22:19:50.902Z,41.40
2023-01-08T22:24:59.246Z,50.40
2023-01-08T22:30:09.866Z,39.50
2023-01-08T22:35:18.450Z,41.50
2023-01-08T22:40:26.772Z,42.60
2023-01-08T22:45:35.727Z,43.10
2023-01-08T22:50:44.099Z,42.40
2023-01-08T22:55:52.439Z,39.00
2023-01-08T23:01:00.727Z,41.70
2023-01-08T23:06:10.073Z,39.70
2023-01-08T23:11:22.225Z,38.90
2023-01-08T23:16:30.607Z,42.20
2023-01-08T23:21:39.159Z,43.20
2023-01-08T23:26:47.428Z,42.70
2023-01-08T23:31:55.796Z,42.40
2023-01-08T23:37:04.334Z,36.70
2023-01-08T23:42:12.893Z,41.10
2023-01-08T23:47:21.292Z,44.40
2023-01-08T23:52:29.602Z,39.00
2023-01-08T23:57:37.983Z,37.90
